Time;durP1;ratioP1;P1;durP2;ratioP2;P2;SDS_P1;SDS_P2;PMS_P1;PMS_P2;Temp;Humidity;BMP_temperature;BMP_pressure;BME280_temperature;BME280_humidity;BME280_pressure;Samples;Min_cycle;Max_cycle;Signal;HPM_P1;HPM_P2
2021/12/06 00:00:12;;;;;;;2.80;2.50;;;5.30;99.90;;;5.42;95.52;100018.09;5045857;28;20657;-66
2021/12/06 00:02:40;;;;;;;2.90;2.70;;;5.20;99.90;;;5.41;95.67;100021.59;5049817;28;20761;-64
2021/12/06 00:05:09;;;;;;;2.93;2.73;;;5.30;99.90;;;5.43;96.69;100027.53;5049988;28;20607;-66
2021/12/06 00:07:38;;;;;;;4.60;3.42;;;5.30;99.90;;;5.42;96.20;100018.09;5041392;28;20766;-66
2021/12/06 00:10:08;;;;;;;3.53;3.10;;;5.30;99.90;;;5.40;96.60;100019.94;5050412;28;20217;-66
2021/12/06 00:12:36;;;;;;;4.40;3.10;;;5.30;99.90;;;5.36;96.26;100018.47;5040715;28;20754;-67
2021/12/06 00:15:05;;;;;;;7.57;3.60;;;5.30;99.90;;;5.33;96.16;100031.56;5049606;28;20640;-65
2021/12/06 00:17:32;;;;;;;7.50;4.07;;;5.20;99.90;;;5.28;96.32;100026.66;5048311;28;20636;-67
2021/12/06 00:19:59;;;;;;;5.07;3.80;;;5.10;99.90;;;5.26;95.87;100028.50;5049970;28;21123;-65
2021/12/06 00:22:26;;;;;;;4.63;4.00;;;5.10;99.90;;;5.27;96.33;100039.69;5047581;28;21297;-66
2021/12/06 00:24:55;;;;;;;7.03;4.00;;;5.10;99.90;;;5.21;95.99;100037.47;5048304;28;20588;-67
2021/12/06 00:27:24;;;;;;;5.67;4.10;;;5.10;99.90;;;5.12;96.48;100040.59;5048826;28;20727;-66
2021/12/06 00:29:52;;;;;;;5.77;4.40;;;5.00;99.90;;;5.07;96.84;100037.47;5050153;28;20620;-67
2021/12/06 00:32:20;;;;;;;6.40;4.30;;;4.90;99.90;;;5.05;96.97;100044.47;5047616;28;20750;-67
2021/12/06 00:34:47;;;;;;;7.07;4.38;;;4.90;99.90;;;5.05;97.07;100040.13;5049188;28;20588;-67
2021/12/06 00:39:55;;;;;;;4.40;3.20;;;4.90;99.90;;;5.06;97.18;100052.16;5042282;28;20600;-66
2021/12/06 00:42:28;;;;;;;6.53;5.20;;;4.90;99.90;;;5.05;96.79;100049.63;5035697;28;20752;-65
2021/12/06 00:44:55;;;;;;;5.43;3.90;;;4.90;99.90;;;5.02;97.03;100050.66;5048632;28;20651;-62
2021/12/06 00:47:22;;;;;;;4.90;3.70;;;4.80;99.90;;;5.02;96.82;100062.75;5039366;28;20678;-66
2021/12/06 00:49:51;;;;;;;4.43;3.63;;;4.90;99.90;;;4.98;96.86;100062.13;5047761;28;20678;-65
2021/12/06 00:52:19;;;;;;;7.57;3.50;;;4.80;99.90;;;4.96;96.42;100065.69;5034895;28;20684;-65
2021/12/06 00:54:47;;;;;;;4.70;3.77;;;4.80;99.90;;;4.91;96.38;100067.72;5027522;28;20634;-63
2021/12/06 00:57:14;;;;;;;7.18;3.92;;;4.70;99.90;;;4.83;96.84;100060.41;5030601;28;20668;-65
2021/12/06 00:59:43;;;;;;;5.40;4.35;;;4.70;99.90;;;4.82;96.97;100065.63;5047449;28;20726;-65
2021/12/06 01:02:11;;;;;;;5.55;3.88;;;4.70;99.90;;;4.77;96.91;100065.91;5048097;28;20340;-65
2021/12/06 01:04:42;;;;;;;5.20;3.83;;;4.60;99.90;;;4.78;96.67;100064.16;5042231;28;20279;-65
2021/12/06 01:07:10;;;;;;;5.18;4.10;;;4.60;99.90;;;4.75;96.90;100059.19;5034764;28;20650;-65
2021/12/06 01:09:37;;;;;;;5.85;3.90;;;4.60;99.90;;;4.69;97.29;100063.75;5046022;28;20210;-68
2021/12/06 01:12:06;;;;;;;4.95;3.75;;;4.50;99.90;;;4.67;96.83;100069.94;5036106;28;20598;-64
2021/12/06 01:14:33;;;;;;;5.43;3.60;;;4.50;99.90;;;4.63;97.20;100074.44;5042991;28;20201;-65
2021/12/06 01:17:00;;;;;;;4.00;3.70;;;4.40;99.90;;;4.59;97.02;100083.31;5048879;28;20301;-63
2021/12/06 01:19:30;;;;;;;4.30;3.90;;;4.40;99.90;;;4.54;97.21;100085.28;5036138;28;21006;-65
2021/12/06 01:22:23;;;;;;;5.13;3.85;;;4.30;99.90;;;4.52;97.28;100091.47;5031011;28;20670;-64
2021/12/06 01:24:57;;;;;;;5.30;4.00;;;4.30;99.90;;;4.48;97.43;100095.97;5025014;28;20752;-65
2021/12/06 01:27:38;;;;;;;4.90;3.60;;;4.30;99.90;;;4.50;97.37;100109.63;5048634;28;21240;-66
2021/12/06 01:41:12;;;;;;;8.60;5.25;;;4.10;99.90;;;4.23;99.34;100120.66;5035050;28;20259;-65
2021/12/06 01:44:11;;;;;;;7.95;4.95;;;4.10;99.90;;;4.25;99.77;100129.13;5046323;28;20301;-66
2021/12/06 01:46:49;;;;;;;7.18;4.20;;;4.10;99.90;;;4.27;99.16;100133.31;5031376;28;20190;-64
2021/12/06 01:49:19;;;;;;;4.95;3.95;;;4.10;99.90;;;4.33;98.64;100138.13;5043762;23;20248;-68
2021/12/06 01:51:48;;;;;;;3.50;3.17;;;4.20;99.90;;;4.36;98.39;100140.56;5012914;28;20301;-68
2021/12/06 01:54:16;;;;;;;5.43;4.38;;;4.20;99.90;;;4.39;97.90;100145.56;5010960;28;20679;-68
2021/12/06 01:56:44;;;;;;;6.68;4.70;;;4.20;99.90;;;4.38;97.52;100140.47;5020642;28;20229;-68
2021/12/06 01:59:12;;;;;;;8.18;4.93;;;4.20;99.90;;;4.30;98.21;100142.66;5028383;28;20226;-67
2021/12/06 02:01:40;;;;;;;6.25;4.78;;;4.20;99.90;;;4.32;98.36;100143.41;5028993;28;20205;-67
2021/12/06 02:04:08;;;;;;;9.13;5.60;;;4.20;99.90;;;4.32;98.19;100146.78;5032859;28;20229;-68
2021/12/06 02:06:38;;;;;;;7.95;5.68;;;4.20;99.90;;;4.24;98.24;100146.38;5032925;28;20206;-68
2021/12/06 02:09:08;;;;;;;7.63;5.45;;;4.10;99.90;;;4.20;98.76;100154.34;5032986;28;20232;-68
2021/12/06 02:11:37;;;;;;;8.60;5.65;;;4.10;99.90;;;4.22;98.53;100160.28;5049613;28;20325;-68
2021/12/06 02:14:24;;;;;;;8.27;5.20;;;4.10;99.90;;;4.28;98.23;100165.13;5032506;28;20313;-68
2021/12/06 02:17:13;;;;;;;8.95;5.00;;;4.20;99.90;;;4.31;97.93;100159.78;5034422;28;20205;-68
2021/12/06 02:19:48;;;;;;;6.20;5.15;;;4.20;99.90;;;4.36;97.11;100168.97;5014297;28;20202;-68
2021/12/06 02:22:24;;;;;;;6.18;4.93;;;4.30;99.90;;;4.44;96.50;100166.81;5028099;28;20556;-68
2021/12/06 02:24:54;;;;;;;6.70;5.30;;;4.40;99.90;;;4.45;96.31;100165.88;5049106;28;20312;-67
2021/12/06 02:27:25;;;;;;;8.20;4.95;;;4.40;99.90;;;4.46;96.33;100167.56;5031911;28;20206;-68
2021/12/06 02:29:55;;;;;;;8.05;5.78;;;4.40;99.90;;;4.47;96.15;100176.97;5031780;28;20296;-68
2021/12/06 02:32:23;;;;;;;6.80;5.00;;;4.40;99.90;;;4.46;96.30;100183.06;5032824;28;20922;-68
2021/12/06 02:34:54;;;;;;;6.47;4.75;;;4.30;99.90;;;4.47;96.01;100182.13;5032935;28;20304;-68
2021/12/06 02:37:30;;;;;;;5.65;4.63;;;4.40;99.90;;;4.47;96.26;100182.13;5031628;28;20352;-68
2021/12/06 02:40:08;;;;;;;3.92;3.50;;;4.40;99.90;;;4.51;95.85;100180.22;5032031;28;20208;-67
2021/12/06 02:42:37;;;;;;;5.90;4.60;;;4.40;99.90;;;4.47;95.65;100171.78;5031506;28;20301;-68
2021/12/06 02:45:08;;;;;;;8.20;5.32;;;4.40;99.90;;;4.44;96.16;100184.06;5031870;28;20222;-67
2021/12/06 02:47:35;;;;;;;7.07;5.22;;;4.30;99.90;;;4.47;96.02;100186.47;5032029;28;20218;-68
2021/12/06 02:50:08;;;;;;;7.32;5.07;;;4.40;99.90;;;4.48;96.27;100183.81;5047735;28;20220;-68
2021/12/06 02:52:37;;;;;;;8.63;5.68;;;4.40;99.90;;;4.49;96.61;100193.19;5031091;28;20325;-68
2021/12/06 02:55:23;;;;;;;8.20;5.35;;;4.50;99.90;;;4.50;96.38;100192.31;5031840;28;20700;-68
2021/12/06 02:57:55;;;;;;;8.80;5.30;;;4.50;99.90;;;4.53;96.16;100193.91;5031480;28;20309;-68
2021/12/06 03:00:23;;;;;;;8.30;5.95;;;4.40;99.90;;;4.48;95.61;100188.13;5032369;28;20301;-68
2021/12/06 03:02:50;;;;;;;9.88;5.72;;;4.40;99.90;;;4.51;96.29;100191.41;5031765;28;20208;-68
2021/12/06 03:05:18;;;;;;;7.05;4.90;;;4.40;99.90;;;4.51;96.27;100187.97;5026711;28;20226;-68
2021/12/06 03:07:50;;;;;;;8.00;4.75;;;4.40;99.90;;;4.50;96.51;100189.72;5020832;28;20268;-68
2021/12/06 03:10:18;;;;;;;7.38;4.72;;;4.40;99.90;;;4.53;96.39;100186.97;5030781;28;20212;-67
2021/12/06 03:12:45;;;;;;;9.70;5.65;;;4.40;99.90;;;4.55;96.19;100192.06;5024966;28;20681;-68
2021/12/06 03:15:12;;;;;;;6.55;5.45;;;4.50;99.90;;;4.58;96.60;100197.03;5012292;28;20210;-68
2021/12/06 03:17:39;;;;;;;8.27;5.20;;;4.50;99.90;;;4.59;96.49;100194.41;5027354;28;20253;-68
2021/12/06 03:20:09;;;;;;;6.25;4.10;;;4.50;99.90;;;4.57;96.23;100203.97;5031679;28;20304;-68
2021/12/06 03:22:36;;;;;;;8.45;5.88;;;4.50;99.90;;;4.53;96.60;100199.91;5030831;28;20711;-67
2021/12/06 03:25:10;;;;;;;7.57;5.40;;;4.40;99.90;;;4.56;96.42;100199.72;5030096;28;20244;-68
2021/12/06 03:27:37;;;;;;;10.25;6.25;;;4.40;99.90;;;4.60;96.37;100211.56;5031181;28;20735;-66
2021/12/06 03:30:09;;;;;;;12.18;6.00;;;4.50;99.90;;;4.60;96.09;100210.72;5030868;28;20289;-68
2021/12/06 03:32:36;;;;;;;7.93;5.28;;;4.50;99.90;;;4.57;96.42;100224.66;5031554;28;20206;-67
2021/12/06 03:35:05;;;;;;;8.90;5.53;;;4.50;99.90;;;4.52;96.40;100231.81;5030985;28;20659;-67
2021/12/06 03:37:32;;;;;;;7.88;5.50;;;4.40;99.90;;;4.53;96.39;100233.50;5031173;28;20293;-68
2021/12/06 03:39:59;;;;;;;10.85;5.88;;;4.40;99.90;;;4.49;96.41;100229.38;5031728;28;20669;-68
2021/12/06 03:42:26;;;;;;;9.38;5.45;;;4.40;99.90;;;4.43;96.66;100237.44;5029958;28;20240;-68
2021/12/06 03:44:53;;;;;;;8.52;6.55;;;4.30;99.90;;;4.34;97.03;100225.06;5031101;28;20220;-68
2021/12/06 03:47:31;;;;;;;6.07;5.22;;;4.20;99.90;;;4.35;97.19;100231.03;5030713;28;20315;-68
2021/12/06 03:49:59;;;;;;;7.65;5.70;;;4.20;99.90;;;4.37;96.74;100229.19;5024571;28;20284;-68
2021/12/06 03:52:26;;;;;;;8.07;5.40;;;4.30;99.90;;;4.36;96.82;100232.72;5029767;28;20668;-68
2021/12/06 03:54:55;;;;;;;8.00;5.60;;;4.20;99.90;;;4.32;97.30;100232.00;5030654;28;20282;-68
2021/12/06 03:57:23;;;;;;;7.95;5.50;;;4.20;99.90;;;4.29;97.12;100239.94;5031429;28;20229;-68
2021/12/06 03:59:52;;;;;;;11.82;5.68;;;4.10;99.90;;;4.29;96.87;100239.94;5030897;28;20209;-67
2021/12/06 04:02:24;;;;;;;9.85;6.18;;;4.20;99.90;;;4.24;96.97;100231.59;5031073;28;20206;-68
2021/12/06 04:04:52;;;;;;;9.45;6.10;;;4.10;99.90;;;4.23;97.29;100247.16;5028650;28;20701;-68
2021/12/06 04:07:19;;;;;;;14.20;6.45;;;4.10;99.90;;;4.15;96.85;100251.91;5024758;28;20197;-67
2021/12/06 04:09:46;;;;;;;9.45;6.22;;;4.00;99.90;;;4.11;97.18;100251.22;5030095;28;20194;-68
2021/12/06 04:12:15;;;;;;;8.65;5.80;;;4.00;99.90;;;4.09;97.36;100262.56;5031107;28;20205;-68
2021/12/06 04:14:43;;;;;;;8.70;5.95;;;3.90;99.90;;;4.09;97.04;100262.56;5025672;28;20769;-67
2021/12/06 04:17:12;;;;;;;9.15;5.70;;;4.00;99.90;;;4.11;97.25;100266.69;5030691;28;20625;-67
2021/12/06 04:19:42;;;;;;;6.88;4.07;;;4.00;99.90;;;4.11;96.89;100273.63;5030198;28;20206;-68
2021/12/06 04:22:11;;;;;;;9.95;5.97;;;4.00;99.90;;;4.09;96.52;100273.69;5031049;28;20209;-68
2021/12/06 04:24:38;;;;;;;13.23;7.28;;;4.00;99.90;;;4.03;96.61;100281.75;5029267;28;20312;-67
2021/12/06 04:27:13;;;;;;;11.95;6.75;;;3.90;99.90;;;4.02;97.08;100284.41;5031134;28;20746;-68
2021/12/06 04:29:48;;;;;;;11.52;6.68;;;3.90;99.90;;;4.03;96.57;100284.34;5031166;28;20205;-68
2021/12/06 04:32:17;;;;;;;12.32;6.70;;;3.90;99.90;;;4.03;96.54;100291.22;5030849;28;20204;-67
2021/12/06 04:34:45;;;;;;;9.55;6.20;;;3.90;99.90;;;4.00;96.26;100288.81;5029376;28;20212;-67
2021/12/06 04:37:12;;;;;;;13.02;7.78;;;3.90;99.90;;;3.94;96.22;100295.13;5030535;28;20252;-67
2021/12/06 04:39:40;;;;;;;11.95;7.22;;;3.80;99.90;;;3.90;96.50;100293.59;5028924;28;20218;-68
2021/12/06 04:42:08;;;;;;;12.30;7.07;;;3.80;99.90;;;3.94;95.63;100295.94;5028618;28;20575;-67
2021/12/06 04:44:36;;;;;;;13.20;7.03;;;3.90;99.90;;;3.94;95.92;100295.13;5021382;28;20225;-68
2021/12/06 04:47:05;;;;;;;13.15;7.10;;;3.80;99.90;;;3.96;95.25;100302.81;5029052;28;20292;-68
2021/12/06 04:49:32;;;;;;;11.57;7.10;;;3.90;99.90;;;3.92;95.08;100297.78;5030280;28;20624;-68
2021/12/06 04:52:04;;;;;;;10.70;6.85;;;3.90;99.90;;;3.87;95.36;100292.03;5029009;28;20236;-67
2021/12/06 04:54:37;;;;;;;11.40;7.30;;;3.80;99.90;;;3.79;95.49;100301.88;5030185;28;20213;-65
2021/12/06 04:57:24;;;;;;;10.70;7.05;;;3.70;99.90;;;3.77;95.83;100308.00;5029716;28;20304;-68
2021/12/06 04:59:59;;;;;;;15.18;6.93;;;3.70;99.90;;;3.77;95.77;100313.16;5045402;28;20297;-67
2021/12/06 05:02:33;;;;;;;10.25;6.68;;;3.70;99.90;;;3.76;95.76;100309.78;5029275;28;20208;-67
2021/12/06 05:05:16;;;;;;;14.52;7.28;;;3.70;99.90;;;3.71;96.33;100309.16;5029555;28;20238;-67
2021/12/06 05:07:51;;;;;;;14.63;7.15;;;3.60;99.90;;;3.68;96.70;100313.66;5030019;28;20725;-68
2021/12/06 05:10:19;;;;;;;15.32;7.38;;;3.60;99.90;;;3.69;96.42;100323.03;5029277;28;20225;-68
2021/12/06 05:12:48;;;;;;;12.80;7.70;;;3.60;99.90;;;3.69;96.30;100323.03;5016003;28;20304;-68
2021/12/06 05:15:15;;;;;;;11.27;7.10;;;3.60;99.90;;;3.71;96.67;100334.13;5027666;28;20206;-67
2021/12/06 05:17:44;;;;;;;15.90;7.65;;;3.60;99.90;;;3.72;96.70;100338.38;5029787;28;20226;-68
2021/12/06 05:20:12;;;;;;;15.68;6.85;;;3.60;99.90;;;3.71;96.38;100342.69;5028234;28;20223;-68
2021/12/06 05:22:41;;;;;;;11.63;7.22;;;3.60;99.90;;;3.73;96.71;100342.63;5029352;28;20216;-68
2021/12/06 05:25:10;;;;;;;11.90;7.25;;;3.60;99.90;;;3.73;96.70;100346.03;5029244;28;20236;-68
2021/12/06 05:27:37;;;;;;;9.73;6.05;;;3.70;99.90;;;3.69;96.35;100343.69;5028791;28;20226;-68
2021/12/06 05:30:09;;;;;;;14.20;8.40;;;3.60;99.90;;;3.73;96.09;100350.38;5029069;28;20564;-68
2021/12/06 05:32:37;;;;;;;15.80;7.07;;;3.70;99.90;;;3.72;96.14;100351.28;5028045;28;20248;-68
2021/12/06 05:35:09;;;;;;;14.00;7.57;;;3.70;99.90;;;3.67;96.08;100360.97;5029768;28;20201;-68
2021/12/06 05:37:46;;;;;;;11.02;7.28;;;3.60;99.90;;;3.66;96.25;100362.72;5031497;28;20318;-67
2021/12/06 05:40:21;;;;;;;12.45;7.30;;;3.60;99.90;;;3.75;96.28;100362.28;5033887;28;20216;-67
2021/12/06 05:42:48;;;;;;;11.80;7.55;;;3.70;99.90;;;3.79;95.61;100371.53;5027322;28;20213;-68
2021/12/06 05:45:19;;;;;;;13.48;7.20;;;3.70;99.90;;;3.80;95.69;100367.22;5013981;28;20260;-68
2021/12/06 05:47:46;;;;;;;11.52;6.85;;;3.70;99.90;;;3.80;95.40;100368.06;5028963;28;20229;-68
2021/12/06 05:50:15;;;;;;;17.02;7.20;;;3.70;99.90;;;3.80;95.68;100373.22;5015692;28;20741;-68
2021/12/06 05:52:42;;;;;;;14.20;7.10;;;3.70;99.90;;;3.80;95.67;100383.56;5032704;28;20736;-67
2021/12/06 05:55:10;;;;;;;13.25;7.45;;;3.70;99.90;;;3.80;95.49;100386.13;5032087;28;20218;-68
2021/12/06 05:57:42;;;;;;;13.52;7.00;;;3.70;99.90;;;3.79;95.68;100383.63;5033306;28;20230;-68
2021/12/06 06:00:13;;;;;;;11.90;6.95;;;3.80;99.90;;;3.82;95.23;100388.63;5033812;28;20280;-67
2021/12/06 06:02:41;;;;;;;11.00;6.53;;;3.80;99.90;;;3.83;95.32;100393.72;5047743;28;20282;-67
2021/12/06 06:05:09;;;;;;;11.80;7.00;;;3.70;99.90;;;3.85;95.03;100402.22;5033211;28;20226;-68
2021/12/06 06:07:36;;;;;;;12.38;6.97;;;3.80;99.90;;;3.86;95.10;100416.81;5025697;28;20301;-66
2021/12/06 06:10:06;;;;;;;11.32;6.75;;;3.80;99.90;;;3.86;95.49;100416.81;5013399;28;20209;-67
2021/12/06 06:12:33;;;;;;;14.23;6.90;;;3.80;99.90;;;3.86;95.32;100419.38;5028639;28;20204;-66
2021/12/06 06:15:00;;;;;;;9.38;6.50;;;3.80;99.90;;;3.88;94.97;100432.22;5032641;28;20204;-68
2021/12/06 06:17:28;;;;;;;13.20;7.13;;;3.80;99.90;;;3.86;95.30;100432.28;5032150;28;20212;-68
2021/12/06 06:19:58;;;;;;;12.05;7.22;;;3.80;99.90;;;3.87;94.96;100433.13;5032758;28;20190;-68
2021/12/06 06:22:25;;;;;;;8.80;5.68;;;3.80;99.90;;;3.90;95.29;100451.03;5048123;28;20202;-68
2021/12/06 06:24:52;;;;;;;9.40;6.43;;;3.80;99.90;;;3.88;95.25;100445.13;5032409;28;20595;-68
2021/12/06 06:27:19;;;;;;;8.48;5.63;;;3.80;99.90;;;3.91;95.24;100452.72;5032238;28;20198;-68
2021/12/06 06:29:46;;;;;;;13.32;7.45;;;3.80;99.90;;;3.91;95.03;100451.00;5032748;28;20296;-68
2021/12/06 06:32:13;;;;;;;11.60;7.10;;;3.80;99.90;;;3.88;95.43;100452.84;5032662;28;20205;-68
2021/12/06 06:34:40;;;;;;;11.13;6.75;;;3.80;99.90;;;3.89;95.11;100459.72;5032573;28;20214;-67
2021/12/06 06:37:07;;;;;;;13.05;7.47;;;3.90;99.90;;;3.92;94.99;100462.97;5032527;28;20285;-68
2021/12/06 06:39:34;;;;;;;11.15;6.55;;;3.90;99.90;;;3.94;94.80;100468.91;5031425;28;20226;-68
2021/12/06 06:42:01;;;;;;;11.50;6.57;;;3.90;99.90;;;3.97;94.85;100472.25;5031760;28;20198;-67
2021/12/06 06:44:28;;;;;;;14.82;6.07;;;3.90;99.90;;;3.97;94.74;100469.66;5029437;28;20240;-68
2021/12/06 06:46:55;;;;;;;8.10;5.38;;;3.90;99.90;;;3.97;94.75;100478.25;5031813;28;20299;-68
2021/12/06 06:49:24;;;;;;;8.23;4.85;;;3.90;99.90;;;3.98;94.17;100473.94;5031202;28;20308;-66
2021/12/06 06:51:51;;;;;;;6.57;4.07;;;3.90;99.90;;;3.97;94.35;100483.41;5032500;28;20321;-68
2021/12/06 06:54:18;;;;;;;9.70;5.13;;;3.90;99.90;;;3.96;94.01;100479.16;5021589;28;20288;-68
2021/12/06 06:56:45;;;;;;;9.73;5.75;;;3.90;99.90;;;3.93;93.72;100487.88;5030223;28;20652;-67
2021/12/06 06:59:12;;;;;;;11.55;6.43;;;3.90;99.90;;;3.93;94.32;100485.31;5030795;28;20241;-68
2021/12/06 07:01:39;;;;;;;11.55;7.15;;;3.90;99.90;;;3.88;94.01;100481.25;5032701;28;20746;-68
2021/12/06 07:04:08;;;;;;;10.40;6.70;;;3.90;99.90;;;3.85;94.77;100482.22;5031118;28;20256;-68
2021/12/06 07:06:35;;;;;;;12.02;7.38;;;3.80;99.90;;;3.79;95.12;100486.88;5032661;28;20214;-68
2021/12/06 07:09:04;;;;;;;13.95;7.82;;;3.70;99.90;;;3.74;95.00;100481.06;5031563;28;20232;-68
2021/12/06 07:11:31;;;;;;;12.57;6.85;;;3.70;99.90;;;3.74;95.19;100493.97;5031162;28;20216;-68
2021/12/06 07:13:59;;;;;;;11.52;6.82;;;3.60;99.90;;;3.74;95.26;100496.56;5010136;28;20289;-68
2021/12/06 07:16:27;;;;;;;7.20;4.40;;;3.70;99.90;;;3.78;95.21;100492.91;5030537;28;20285;-67
2021/12/06 07:18:54;;;;;;;6.07;4.53;;;3.70;99.90;;;3.81;94.87;100503.09;5031977;28;20249;-68
2021/12/06 07:21:21;;;;;;;6.00;4.65;;;3.70;99.90;;;3.82;94.62;100503.03;5025347;28;20294;-68
2021/12/06 07:23:49;;;;;;;8.27;4.20;;;3.70;99.90;;;3.83;95.10;100502.09;5032191;28;20202;-68
2021/12/06 07:26:19;;;;;;;9.48;4.97;;;3.80;99.90;;;3.85;94.75;100512.38;5030042;28;20305;-68
2021/12/06 07:28:55;;;;;;;6.22;3.70;;;3.70;99.90;;;3.83;94.53;100512.44;5026299;28;20293;-67
2021/12/06 07:31:26;;;;;;;8.00;4.80;;;3.80;99.90;;;3.85;94.71;100517.53;5035429;28;20203;-67
2021/12/06 07:33:53;;;;;;;8.45;4.80;;;3.80;99.90;;;3.87;94.79;100524.31;5029949;28;20249;-68
2021/12/06 07:36:25;;;;;;;7.65;4.20;;;3.80;99.90;;;3.87;94.88;100521.72;5030610;28;20202;-67
2021/12/06 07:38:52;;;;;;;7.47;4.82;;;3.90;99.90;;;3.89;95.39;100535.41;5029872;28;20732;-68
2021/12/06 07:41:22;;;;;;;8.02;5.18;;;3.80;99.90;;;3.94;95.30;100530.00;5031550;28;20194;-67
2021/12/06 07:43:50;;;;;;;7.20;5.05;;;3.90;99.90;;;4.03;94.88;100534.75;5028888;28;20213;-68
2021/12/06 07:46:17;;;;;;;10.30;5.63;;;4.00;99.90;;;4.09;95.22;100538.81;5030590;28;20249;-68
2021/12/06 07:48:45;;;;;;;9.32;4.90;;;4.00;99.90;;;4.13;95.17;100540.34;5032118;28;20242;-68
2021/12/06 07:51:12;;;;;;;8.40;4.90;;;4.10;99.90;;;4.15;95.12;100541.94;5032346;28;20736;-68
2021/12/06 07:53:40;;;;;;;9.00;5.10;;;4.10;99.90;;;4.20;94.53;100550.28;5030600;28;20198;-68
2021/12/06 07:56:07;;;;;;;9.32;5.82;;;4.10;99.90;;;4.25;94.25;100548.34;5031074;28;20209;-67
2021/12/06 07:58:34;;;;;;;8.60;5.30;;;4.20;99.90;;;4.30;93.89;100551.50;5029240;28;20218;-70
2021/12/06 08:01:02;;;;;;;8.70;5.20;;;4.20;99.90;;;4.33;93.41;100551.38;5028658;28;20210;-67
2021/12/06 08:03:31;;;;;;;8.57;5.72;;;4.30;99.90;;;4.38;93.62;100552.00;5029216;28;20210;-68
2021/12/06 08:06:00;;;;;;;9.68;5.50;;;4.30;99.90;;;4.38;93.97;100558.91;5029874;28;20597;-67
2021/12/06 08:08:31;;;;;;;8.02;5.07;;;4.30;99.90;;;4.44;93.52;100556.88;5029322;28;20707;-68
2021/12/06 08:11:10;;;;;;;11.23;5.28;;;4.40;99.90;;;4.52;93.19;100561.66;5030429;28;20649;-67
2021/12/06 08:13:41;;;;;;;6.40;4.13;;;4.50;99.90;;;4.57;92.78;100565.72;5029254;28;20206;-68
2021/12/06 08:16:22;;;;;;;6.03;4.32;;;4.60;99.90;;;4.46;92.24;100567.13;5028848;28;20639;-68
2021/12/06 08:18:50;;;;;;;5.70;4.15;;;4.40;99.90;;;4.46;92.48;100567.97;5027175;28;20228;-68
2021/12/06 08:21:19;;;;;;;7.40;4.35;;;4.40;99.90;;;4.53;91.78;100560.78;5029091;28;20285;-68
2021/12/06 08:23:51;;;;;;;8.18;4.88;;;4.50;99.90;;;4.61;91.75;100569.81;5026129;28;20692;-68
2021/12/06 08:26:21;;;;;;;7.45;5.65;;;4.60;99.90;;;4.69;91.92;100570.28;5029600;28;20233;-66
2021/12/06 08:28:49;;;;;;;10.70;6.05;;;4.60;99.90;;;4.85;92.09;100569.53;5011734;28;20593;-68
2021/12/06 08:31:22;;;;;;;9.60;5.78;;;4.90;99.90;;;5.04;91.42;100572.88;5030027;28;20209;-68
2021/12/06 08:33:53;;;;;;;7.32;5.45;;;5.10;99.90;;;5.30;90.58;100578.41;5029046;28;20756;-68
2021/12/06 08:36:21;;;;;;;8.10;5.47;;;5.40;99.90;;;5.50;90.04;100577.38;5030341;28;20229;-68
2021/12/06 08:38:49;;;;;;;8.93;5.28;;;5.60;99.90;;;5.67;89.02;100579.91;5030479;28;20234;-70
2021/12/06 08:41:24;;;;;;;10.15;6.00;;;5.80;99.90;;;5.77;88.07;100577.69;5029988;28;20229;-68
2021/12/06 08:43:54;;;;;;;9.93;6.43;;;5.90;99.90;;;5.83;87.21;100580.81;5029014;28;20297;-68
2021/12/06 08:46:30;;;;;;;12.45;6.78;;;5.90;99.90;;;5.89;86.27;100590.88;5027011;28;20697;-68
2021/12/06 08:49:00;;;;;;;12.45;6.55;;;6.00;99.90;;;5.87;85.53;100584.94;5026365;28;20313;-69
2021/12/06 08:51:40;;;;;;;9.37;5.80;;;5.90;99.90;;;5.98;85.58;100577.44;5026930;28;21014;-69
2021/12/06 08:54:09;;;;;;;12.50;6.93;;;6.00;99.90;;;6.15;85.13;100579.09;5027904;28;20694;-68
2021/12/06 08:56:37;;;;;;;9.57;6.10;;;6.20;99.90;;;6.24;84.69;100576.81;5027107;28;21310;-68
2021/12/06 08:59:06;;;;;;;8.60;6.23;;;6.30;99.90;;;6.36;83.55;100574.47;5025942;28;20640;-68
2021/12/06 09:01:35;;;;;;;9.27;6.17;;;6.50;99.90;;;6.47;82.60;100577.31;5009501;28;20697;-68
2021/12/06 09:04:23;;;;;;;9.73;6.40;;;6.60;99.90;;;6.43;81.73;100578.41;5024268;28;20632;-67
2021/12/06 09:06:52;;;;;;;8.40;6.30;;;6.50;99.90;;;6.41;81.80;100575.06;5021258;28;21242;-69
2021/12/06 09:09:21;;;;;;;10.00;6.67;;;6.50;99.90;;;6.41;82.71;100572.50;5024322;28;20666;-70
2021/12/06 09:11:49;;;;;;;9.27;6.60;;;6.40;99.90;;;6.37;81.41;100576.97;5029390;28;20712;-69
2021/12/06 09:14:17;;;;;;;11.47;6.50;;;6.40;99.90;;;6.33;82.33;100570.31;5021212;28;20729;-69
2021/12/06 09:16:46;;;;;;;8.80;5.57;;;6.30;99.90;;;6.24;82.52;100565.63;5015468;28;21171;-68
2021/12/06 09:19:14;;;;;;;13.53;6.97;;;6.20;99.90;;;6.16;82.34;100568.66;5038890;28;20660;-69
2021/12/06 09:21:43;;;;;;;9.03;5.43;;;6.10;99.90;;;6.11;83.03;100565.47;5028488;28;20980;-68
2021/12/06 09:24:16;;;;;;;7.60;5.53;;;6.00;99.90;;;6.11;83.31;100572.41;5027088;28;21237;-68
2021/12/06 09:26:45;;;;;;;10.63;6.10;;;6.00;99.90;;;6.10;83.19;100561.22;5028663;28;21107;-67
2021/12/06 09:29:13;;;;;;;12.17;6.93;;;6.10;99.90;;;6.10;82.60;100555.19;5028494;28;20624;-68
2021/12/06 09:31:41;;;;;;;10.63;6.77;;;6.10;99.90;;;6.12;83.70;100559.38;5028933;28;20758;-68
2021/12/06 09:34:08;;;;;;;12.07;6.93;;;6.10;99.90;;;6.18;82.47;100551.25;5030199;28;20724;-67
2021/12/06 09:36:36;;;;;;;12.63;7.37;;;6.20;99.90;;;6.22;82.89;100555.34;5007335;28;21209;-68
2021/12/06 09:39:06;;;;;;;9.07;5.93;;;6.30;99.90;;;6.32;83.21;100560.03;5026492;28;20736;-68
2021/12/06 09:41:34;;;;;;;14.13;6.17;;;6.40;99.90;;;6.36;82.48;100562.38;5027876;28;21083;-68
2021/12/06 09:44:05;;;;;;;7.77;5.27;;;6.50;99.90;;;6.42;82.32;100562.03;5028537;28;20711;-68
2021/12/06 09:46:37;;;;;;;8.97;5.77;;;6.50;99.90;;;6.32;81.61;100565.22;5028213;28;21319;-68
2021/12/06 09:49:15;;;;;;;7.80;5.40;;;6.30;99.90;;;6.30;82.40;100567.91;5029304;28;20660;-68
2021/12/06 09:51:51;;;;;;;6.53;4.90;;;6.30;99.90;;;6.48;82.19;100576.38;5030006;28;20678;-68
2021/12/06 09:54:19;;;;;;;8.23;5.10;;;6.50;99.90;;;6.73;81.49;100584.47;5019755;28;20613;-69
2021/12/06 09:56:48;;;;;;;9.13;5.50;;;6.80;99.90;;;7.02;80.19;100583.63;5009885;28;20671;-68
2021/12/06 09:59:20;;;;;;;7.77;4.83;;;7.20;99.90;;;7.31;78.49;100589.69;5029446;28;20755;-69
2021/12/06 10:01:59;;;;;;;7.90;4.90;;;7.60;99.90;;;7.56;77.61;100582.16;5028602;28;20655;-68
2021/12/06 10:04:30;;;;;;;6.03;5.10;;;7.80;99.90;;;7.75;76.67;100590.50;5028122;28;20636;-69
2021/12/06 10:06:58;;;;;;;10.50;6.30;;;8.00;99.90;;;7.88;75.65;100590.56;5029539;28;21239;-69
2021/12/06 10:09:26;;;;;;;6.27;4.70;;;8.10;99.90;;;7.86;75.45;100595.03;5027585;28;20756;-69
2021/12/06 10:11:57;;;;;;;8.53;5.63;;;8.00;99.90;;;7.65;75.65;100586.75;5029641;28;20640;-69
2021/12/06 10:14:24;;;;;;;9.70;5.00;;;7.70;99.90;;;7.42;76.57;100582.97;5029131;28;20628;-69
2021/12/06 10:16:51;;;;;;;9.63;5.17;;;7.40;99.90;;;7.21;77.44;100581.63;5028837;28;20647;-66
2021/12/06 10:19:20;;;;;;;7.97;4.40;;;7.10;99.90;;;7.07;78.00;100582.44;5020854;28;20656;-68
2021/12/06 10:21:48;;;;;;;9.40;5.97;;;7.00;99.90;;;6.99;78.33;100578.59;5029267;28;20711;-69
2021/12/06 10:24:23;;;;;;;10.83;5.57;;;6.90;99.90;;;6.89;80.78;100580.06;5032843;28;20642;-67
2021/12/06 10:27:05;;;;;;;8.90;4.47;;;6.90;99.90;;;6.93;80.28;100576.38;5031910;28;21235;-69
2021/12/06 10:29:43;;;;;;;11.97;5.40;;;6.90;99.90;;;6.98;80.66;100571.78;5032852;28;20628;-66
2021/12/06 10:32:21;;;;;;;13.53;5.00;;;7.00;99.90;;;6.96;79.02;100569.25;5032178;28;21099;-69
2021/12/06 10:34:56;;;;;;;10.00;5.10;;;7.00;99.90;;;7.12;79.00;100569.19;5033261;28;20620;-66
2021/12/06 10:37:43;;;;;;;8.00;4.57;;;7.20;99.90;;;7.21;79.30;100575.59;5032829;28;21162;-68
2021/12/06 10:40:21;;;;;;;8.50;5.20;;;7.30;99.90;;;7.28;77.89;100567.38;5031519;28;20726;-69
2021/12/06 10:42:51;;;;;;;11.80;6.07;;;7.30;99.90;;;7.35;78.13;100566.06;5032890;28;20707;-67
2021/12/06 10:45:24;;;;;;;13.87;6.50;;;7.40;99.90;;;7.49;76.20;100560.06;5017586;28;20736;-68
2021/12/06 10:48:21;;;;;;;13.27;6.13;;;7.60;99.90;;;7.18;77.19;100549.81;5012832;28;20741;-69